createdAt,value
2019-03-20T00:00:58.982Z,0.70
2019-03-20T00:03:27.464Z,0.66
2019-03-20T00:05:55.986Z,0.58
2019-03-20T00:08:24.438Z,0.53
2019-03-20T00:10:52.926Z,0.51
2019-03-20T00:13:21.403Z,0.38
2019-03-20T00:15:49.862Z,0.51
2019-03-20T00:18:18.372Z,0.48
2019-03-20T00:20:46.843Z,0.49
2019-03-20T00:23:15.290Z,0.66
2019-03-20T00:25:44.005Z,0.41
2019-03-20T00:28:12.460Z,0.39
2019-03-20T00:30:41.023Z,0.38
2019-03-20T00:33:09.687Z,0.46
2019-03-20T00:35:38.204Z,0.46
2019-03-20T00:38:06.808Z,0.44
2019-03-20T00:40:35.730Z,0.38
2019-03-20T00:43:04.179Z,0.47
2019-03-20T00:45:32.914Z,0.39
2019-03-20T00:48:01.771Z,0.21
2019-03-20T00:50:30.217Z,0.31
2019-03-20T00:52:58.664Z,0.22
2019-03-20T00:55:27.262Z,0.17
2019-03-20T00:57:55.783Z,0.25
2019-03-20T01:00:25.436Z,0.23
2019-03-20T01:02:54.019Z,0.18
2019-03-20T01:05:22.819Z,0.02
2019-03-20T01:07:51.519Z,-0.04
2019-03-20T01:10:24.242Z,-0.12
2019-03-20T01:12:52.958Z,0.12
2019-03-20T01:15:21.663Z,0.10
2019-03-20T01:17:50.305Z,0.07
2019-03-20T01:20:19.899Z,0.07
2019-03-20T01:22:48.591Z,0.21
2019-03-20T01:25:17.904Z,0.28
2019-03-20T01:27:46.449Z,0.08
2019-03-20T01:30:24.150Z,-0.25
2019-03-20T01:32:52.614Z,-0.24
2019-03-20T01:35:24.185Z,-0.14
2019-03-20T01:37:51.465Z,-0.42
2019-03-20T01:40:19.919Z,-0.35
2019-03-20T01:42:48.376Z,-0.14
2019-03-20T01:45:16.971Z,-0.13
2019-03-20T01:47:45.517Z,-0.11
2019-03-20T01:50:14.218Z,-0.16
2019-03-20T01:52:42.866Z,-0.26
2019-03-20T01:55:11.462Z,-0.40
2019-03-20T01:57:39.920Z,-0.25
2019-03-20T02:00:10.413Z,-0.26
2019-03-20T02:02:38.932Z,-0.25
2019-03-20T02:05:07.969Z,-0.10
2019-03-20T02:07:36.439Z,-0.01
2019-03-20T02:10:10.926Z,-0.10
2019-03-20T02:12:39.382Z,-0.19
2019-03-20T02:15:13.998Z,-0.36
2019-03-20T02:17:42.454Z,-0.50
2019-03-20T02:20:15.839Z,-0.34
2019-03-20T02:22:44.480Z,-0.57
2019-03-20T02:25:13.870Z,-0.53
2019-03-20T02:27:42.490Z,-0.55
2019-03-20T02:30:20.797Z,-0.47
2019-03-20T02:32:49.324Z,-0.58
2019-03-20T02:35:17.838Z,-0.65
2019-03-20T02:37:46.404Z,-0.69
2019-03-20T02:40:15.499Z,-0.64
2019-03-20T02:42:44.050Z,-0.51
2019-03-20T02:45:18.608Z,-0.56
2019-03-20T02:47:47.067Z,-0.53
2019-03-20T02:50:15.881Z,-0.54
2019-03-20T02:52:44.611Z,-0.55
2019-03-20T02:55:13.687Z,-0.55
2019-03-20T02:57:42.140Z,-0.49
2019-03-20T03:00:20.871Z,-0.55
2019-03-20T03:02:49.367Z,-0.72
2019-03-20T03:05:18.560Z,-0.65
2019-03-20T03:07:47.224Z,-0.46
2019-03-20T03:10:17.657Z,-0.70
2019-03-20T03:12:46.372Z,-0.62
2019-03-20T03:15:16.005Z,-0.70
2019-03-20T03:17:44.630Z,-0.70
2019-03-20T03:20:14.337Z,-0.69
2019-03-20T03:22:42.977Z,-0.72
2019-03-20T03:25:12.767Z,-0.55
2019-03-20T03:27:41.224Z,-0.50
2019-03-20T03:30:15.851Z,-0.74
2019-03-20T03:32:44.467Z,-0.73
2019-03-20T03:35:17.878Z,-0.80
2019-03-20T03:37:43.698Z,-0.79
2019-03-20T03:40:22.291Z,-0.83
2019-03-20T03:42:50.808Z,-0.79
2019-03-20T03:45:19.331Z,-0.78
2019-03-20T03:47:47.861Z,-0.80
2019-03-20T03:50:16.493Z,-0.97
2019-03-20T03:52:44.961Z,-1.03
2019-03-20T03:55:14.912Z,-1.08
2019-03-20T03:57:44.474Z,-1.14
2019-03-20T04:00:15.038Z,-1.18
2019-03-20T04:02:43.538Z,-1.18
2019-03-20T04:05:12.061Z,-1.17
2019-03-20T04:07:40.572Z,-1.21
2019-03-20T04:10:18.890Z,-0.99
2019-03-20T04:13:06.514Z,-0.97
2019-03-20T04:15:36.541Z,-1.01
2019-03-20T04:18:45.103Z,-1.15
2019-03-20T04:21:13.591Z,-1.23
2019-03-20T04:23:42.045Z,-1.14
2019-03-20T04:26:10.500Z,-1.10
2019-03-20T04:28:38.992Z,-1.08
2019-03-20T04:31:26.693Z,-1.09
2019-03-20T04:34:14.451Z,-1.26
2019-03-20T04:36:47.715Z,-1.20
2019-03-20T04:42:06.079Z,-1.11
2019-03-20T04:44:53.757Z,-1.10
2019-03-20T04:47:22.211Z,-1.03
2019-03-20T04:49:50.672Z,-1.13
2019-03-20T04:52:19.159Z,-1.21
2019-03-20T04:54:47.622Z,-0.65
2019-03-20T04:57:16.068Z,-0.55
2019-03-20T04:59:44.558Z,-0.88
2019-03-20T05:02:32.208Z,-0.88
2019-03-20T05:07:34.778Z,-0.97
2019-03-20T05:12:57.559Z,-0.67
2019-03-20T05:15:26.274Z,-0.84
2019-03-20T05:17:54.728Z,-1.09
2019-03-20T05:21:03.151Z,-1.05
2019-03-20T05:23:31.604Z,-1.05
2019-03-20T05:26:19.419Z,-1.27
2019-03-20T05:28:47.871Z,-1.28
2019-03-20T05:31:16.330Z,-1.37
2019-03-20T05:36:19.092Z,-1.08
2019-03-20T05:38:47.551Z,-1.21
2019-03-20T05:43:50.391Z,-1.29
2019-03-20T05:46:18.850Z,-1.46
2019-03-20T05:48:47.374Z,-1.37
2019-03-20T05:51:15.827Z,-1.28
2019-03-20T05:54:03.638Z,-1.21
2019-03-20T05:56:32.106Z,-1.06
2019-03-20T05:59:00.587Z,-1.15
2019-03-20T06:04:22.851Z,-1.10
2019-03-20T06:06:51.348Z,-0.97
2019-03-20T06:09:39.130Z,-0.92
2019-03-20T06:12:07.625Z,-0.85
2019-03-20T06:14:36.102Z,-0.67
2019-03-20T06:19:57.668Z,-0.59
2019-03-20T06:22:26.160Z,-0.49
2019-03-20T06:24:54.616Z,-0.42
2019-03-20T06:27:23.139Z,-0.20
2019-03-20T06:32:25.843Z,-0.05
2019-03-20T06:34:54.299Z,-0.12
2019-03-20T06:37:32.236Z,-0.11
2019-03-20T06:39:53.465Z,-0.13
2019-03-20T06:42:23.167Z,0.06
2019-03-20T06:44:51.677Z,0.29
2019-03-20T06:47:20.126Z,0.39
2019-03-20T06:49:48.612Z,0.52
2019-03-20T06:52:17.242Z,0.76
2019-03-20T06:54:45.690Z,0.71
2019-03-20T06:57:33.492Z,0.53
2019-03-20T07:00:40.529Z,0.64
2019-03-20T07:03:47.751Z,0.72
2019-03-20T07:06:56.114Z,0.87
2019-03-20T07:10:04.859Z,1.02
2019-03-20T07:12:33.314Z,0.93
2019-03-20T07:15:01.768Z,1.05
2019-03-20T07:20:49.580Z,1.44
2019-03-20T07:23:18.030Z,1.76
2019-03-20T07:25:46.483Z,2.31
2019-03-20T07:28:14.983Z,2.12
2019-03-20T07:30:43.422Z,2.12
2019-03-20T07:33:11.869Z,2.14
2019-03-20T07:35:40.357Z,2.46
2019-03-20T07:38:28.055Z,2.40
2019-03-20T07:43:30.782Z,2.51
2019-03-20T07:45:59.268Z,2.47
2019-03-20T07:48:27.742Z,2.43
2019-03-20T07:50:56.167Z,2.71
2019-03-20T07:56:17.716Z,2.78
2019-03-20T07:58:46.205Z,2.73
2019-03-20T08:01:14.657Z,2.76
2019-03-20T08:03:43.138Z,2.71
2019-03-20T08:06:11.624Z,3.10
2019-03-20T08:08:59.324Z,3.22
2019-03-20T08:11:27.810Z,3.42
2019-03-20T08:14:15.455Z,3.26
2019-03-20T08:16:43.937Z,3.50
2019-03-20T08:19:12.385Z,3.84
2019-03-20T08:21:40.835Z,3.95
2019-03-20T08:26:43.047Z,4.19
2019-03-20T08:29:11.501Z,4.54
2019-03-20T08:34:14.277Z,4.27
2019-03-20T08:36:42.758Z,4.48
2019-03-20T08:39:11.209Z,4.85
2019-03-20T08:41:39.664Z,4.54
2019-03-20T08:46:42.078Z,4.86
2019-03-20T08:49:10.533Z,4.87
2019-03-20T08:51:39.007Z,5.38
2019-03-20T08:54:07.453Z,5.55
2019-03-20T08:56:35.907Z,5.25
2019-03-20T08:59:23.716Z,5.25
2019-03-20T09:01:52.171Z,5.23
2019-03-20T09:04:20.633Z,5.37
2019-03-20T09:09:22.642Z,5.70
2019-03-20T09:11:51.090Z,6.07
2019-03-20T09:16:54.026Z,6.13
2019-03-20T09:21:56.459Z,6.46
2019-03-20T09:27:18.141Z,6.78
2019-03-20T09:30:06.047Z,6.82
2019-03-20T09:32:34.495Z,7.12
2019-03-20T09:40:31.171Z,7.85
2019-03-20T09:43:18.918Z,7.76
2019-03-20T09:46:06.689Z,7.73
2019-03-20T09:48:54.367Z,7.82
2019-03-20T09:51:22.821Z,8.35
2019-03-20T09:57:03.575Z,8.46
2019-03-20T09:59:32.069Z,8.47
2019-03-20T10:02:02.787Z,8.90
2019-03-20T10:04:30.691Z,8.78
2019-03-20T10:06:59.209Z,8.68
2019-03-20T10:09:46.979Z,8.79
2019-03-20T10:12:15.466Z,8.72
2019-03-20T10:15:03.234Z,8.97
2019-03-20T10:20:45.999Z,9.09
2019-03-20T10:23:14.483Z,9.28
2019-03-20T10:25:44.845Z,9.45
2019-03-20T10:28:13.102Z,9.85
2019-03-20T10:31:00.813Z,10.26
2019-03-20T10:33:29.268Z,10.24
2019-03-20T10:36:17.111Z,10.27
2019-03-20T10:38:45.607Z,10.41
2019-03-20T10:41:14.018Z,10.35
2019-03-20T10:43:42.513Z,10.61
2019-03-20T10:46:11.051Z,10.68
2019-03-20T10:48:39.513Z,10.76
2019-03-20T10:51:08.127Z,10.61
2019-03-20T10:53:36.657Z,10.80
2019-03-20T10:56:05.189Z,10.64
2019-03-20T10:58:33.724Z,10.78
2019-03-20T11:01:02.254Z,11.31
2019-03-20T11:03:30.716Z,11.28
2019-03-20T11:05:59.203Z,11.45
2019-03-20T11:08:27.653Z,11.45
2019-03-20T11:10:56.113Z,10.92
2019-03-20T11:13:24.616Z,11.15
2019-03-20T11:15:53.050Z,11.52
2019-03-20T11:18:21.500Z,11.53
2019-03-20T11:20:50.210Z,11.68
2019-03-20T11:23:18.667Z,12.05
2019-03-20T11:25:47.196Z,12.04
2019-03-20T11:28:15.686Z,12.05
2019-03-20T11:30:44.210Z,12.23
2019-03-20T11:33:12.804Z,11.61
2019-03-20T11:35:42.503Z,11.72
2019-03-20T11:38:11.305Z,11.65
2019-03-20T11:40:40.918Z,11.70
2019-03-20T11:43:09.838Z,12.12
2019-03-20T11:45:38.297Z,12.08
2019-03-20T11:48:06.782Z,12.36
2019-03-20T11:50:40.516Z,12.54
2019-03-20T11:53:09.612Z,12.33
2019-03-20T11:55:38.505Z,12.27
2019-03-20T11:58:08.193Z,12.25
2019-03-20T12:00:37.084Z,12.05
2019-03-20T12:03:06.190Z,12.02
2019-03-20T12:05:34.740Z,12.26
2019-03-20T12:08:03.323Z,12.31
2019-03-20T12:10:32.719Z,12.09
2019-03-20T12:13:01.305Z,12.33
2019-03-20T12:15:30.010Z,12.64
2019-03-20T12:17:58.600Z,13.03
2019-03-20T12:20:27.565Z,12.91
2019-03-20T12:22:56.112Z,13.21
2019-03-20T12:25:40.943Z,12.69
2019-03-20T12:28:09.415Z,12.61
2019-03-20T12:30:38.805Z,12.52
2019-03-20T12:33:07.604Z,12.13
2019-03-20T12:35:40.647Z,12.20
2019-03-20T12:38:14.766Z,11.84
2019-03-20T12:40:39.402Z,11.95
2019-03-20T12:43:08.204Z,12.20
2019-03-20T12:45:38.097Z,12.52
2019-03-20T12:48:07.996Z,12.61
2019-03-20T12:50:36.502Z,12.59
2019-03-20T12:53:06.796Z,12.64
2019-03-20T12:55:35.509Z,12.39
2019-03-20T12:58:04.036Z,12.66
2019-03-20T13:00:32.619Z,12.50
2019-03-20T13:03:01.205Z,12.73
2019-03-20T13:05:29.792Z,13.08
2019-03-20T13:08:05.453Z,12.55
2019-03-20T13:10:28.860Z,12.51
2019-03-20T13:12:57.377Z,12.66
2019-03-20T13:15:26.769Z,12.43
2019-03-20T13:17:56.302Z,12.51
2019-03-20T13:20:25.189Z,12.64
2019-03-20T13:22:59.413Z,12.52
2019-03-20T13:25:27.999Z,12.75
2019-03-20T13:27:56.523Z,12.86
2019-03-20T13:30:53.367Z,12.83
2019-03-20T13:33:25.982Z,12.68
2019-03-20T13:35:52.037Z,12.81
2019-03-20T13:38:20.595Z,12.88
2019-03-20T13:40:49.044Z,12.92
2019-03-20T13:43:17.500Z,12.62
2019-03-20T13:45:46.060Z,12.66
2019-03-20T13:48:14.513Z,12.54
2019-03-20T13:50:43.005Z,12.61
2019-03-20T13:53:11.838Z,12.58
2019-03-20T13:55:40.301Z,12.46
2019-03-20T13:58:08.759Z,12.65
2019-03-20T14:00:37.589Z,12.61
2019-03-20T14:03:06.129Z,12.88
2019-03-20T14:05:34.587Z,13.10
2019-03-20T14:08:03.147Z,13.19
2019-03-20T14:10:32.268Z,13.08
2019-03-20T14:13:00.767Z,13.36
2019-03-20T14:15:29.401Z,12.95
2019-03-20T14:17:57.923Z,13.23
2019-03-20T14:20:31.611Z,13.36
2019-03-20T14:23:00.099Z,13.45
2019-03-20T14:25:28.553Z,13.40
2019-03-20T14:27:57.247Z,13.58
2019-03-20T14:30:31.243Z,13.57
2019-03-20T14:32:59.835Z,13.73
2019-03-20T14:35:28.366Z,13.58
2019-03-20T14:37:56.942Z,13.29
2019-03-20T14:40:36.084Z,13.37
2019-03-20T14:43:02.745Z,13.37
2019-03-20T14:45:31.229Z,13.25
2019-03-20T14:47:59.852Z,13.39
2019-03-20T14:50:30.362Z,13.01
2019-03-20T14:52:59.060Z,13.34
2019-03-20T14:55:27.850Z,13.23
2019-03-20T14:57:56.489Z,13.36
2019-03-20T15:00:26.363Z,13.42
2019-03-20T15:02:55.054Z,13.23
2019-03-20T15:05:24.014Z,13.18
2019-03-20T15:07:52.608Z,13.04
2019-03-20T15:10:28.453Z,13.17
2019-03-20T15:12:57.824Z,13.01
2019-03-20T15:15:29.318Z,13.19
2019-03-20T15:17:58.407Z,13.06
2019-03-20T15:20:26.931Z,13.15
2019-03-20T15:22:55.463Z,13.24
2019-03-20T15:25:23.961Z,13.15
2019-03-20T15:27:52.520Z,13.19
2019-03-20T15:30:26.063Z,12.95
2019-03-20T15:32:54.629Z,12.98
2019-03-20T15:35:23.754Z,12.96
2019-03-20T15:37:52.275Z,13.09
2019-03-20T15:40:26.497Z,13.14
2019-03-20T15:42:55.031Z,13.21
2019-03-20T15:45:23.554Z,13.19
2019-03-20T15:47:52.254Z,12.99
2019-03-20T15:50:25.945Z,13.09
2019-03-20T15:52:54.399Z,13.21
2019-03-20T15:55:33.910Z,13.02
2019-03-20T15:58:02.500Z,12.90
2019-03-20T16:00:31.039Z,12.89
2019-03-20T16:03:05.093Z,12.84
2019-03-20T16:05:33.620Z,12.81
2019-03-20T16:08:02.152Z,12.77
2019-03-20T16:10:30.742Z,12.96
2019-03-20T16:12:59.264Z,12.89
2019-03-20T16:15:27.726Z,12.92
2019-03-20T16:17:56.281Z,12.79
2019-03-20T16:20:24.884Z,12.73
2019-03-20T16:22:53.550Z,12.65
2019-03-20T16:25:23.423Z,12.61
2019-03-20T16:27:51.947Z,12.68
2019-03-20T16:30:28.080Z,12.58
2019-03-20T16:32:56.725Z,12.59
2019-03-20T16:35:25.180Z,12.60
2019-03-20T16:37:54.144Z,12.64
2019-03-20T16:40:25.663Z,12.55
2019-03-20T16:43:13.564Z,12.48
2019-03-20T16:46:01.214Z,12.49
2019-03-20T16:51:03.559Z,12.45
2019-03-20T16:53:32.038Z,12.48
2019-03-20T16:56:00.509Z,12.47
2019-03-20T16:58:28.959Z,12.38
2019-03-20T17:00:57.414Z,12.60
2019-03-20T17:05:59.552Z,12.43
2019-03-20T17:08:47.407Z,12.29
2019-03-20T17:11:38.585Z,12.26
2019-03-20T17:14:24.645Z,12.14
2019-03-20T17:17:12.424Z,12.05
2019-03-20T17:19:40.910Z,11.90
2019-03-20T17:22:09.417Z,11.66
2019-03-20T17:24:37.819Z,11.80
2019-03-20T17:29:40.813Z,11.67
2019-03-20T17:32:09.308Z,11.68
2019-03-20T17:34:37.763Z,11.75
2019-03-20T17:37:25.861Z,11.65
2019-03-20T17:39:54.315Z,11.49
2019-03-20T17:42:22.771Z,11.27
2019-03-20T17:44:51.269Z,11.15
2019-03-20T17:47:19.732Z,10.83
2019-03-20T17:49:48.183Z,10.64
2019-03-20T17:52:16.681Z,10.43
2019-03-20T17:54:45.157Z,10.37
2019-03-20T17:57:13.615Z,10.31
2019-03-20T18:02:23.574Z,10.04
2019-03-20T18:04:46.412Z,9.87
2019-03-20T18:07:14.872Z,9.67
2019-03-20T18:09:43.332Z,9.61
2019-03-20T18:12:11.846Z,9.68
2019-03-20T18:14:40.372Z,9.57
2019-03-20T18:17:08.823Z,9.43
2019-03-20T18:22:11.038Z,9.21
2019-03-20T18:24:39.499Z,8.97
2019-03-20T18:27:07.995Z,8.99
2019-03-20T18:29:36.450Z,9.03
2019-03-20T18:32:24.265Z,9.04
2019-03-20T18:34:52.720Z,8.99
2019-03-20T18:37:40.471Z,9.00
2019-03-20T18:40:28.439Z,8.92
2019-03-20T18:43:16.325Z,8.92
2019-03-20T18:45:44.798Z,8.64
2019-03-20T18:48:32.527Z,8.54
2019-03-20T18:51:00.982Z,8.64
2019-03-20T18:53:29.439Z,8.54
2019-03-20T18:58:51.698Z,8.41
2019-03-20T19:01:20.269Z,8.37
2019-03-20T19:03:48.747Z,7.98
2019-03-20T19:06:57.465Z,8.01
2019-03-20T19:09:26.029Z,7.83
2019-03-20T19:11:54.594Z,7.77
2019-03-20T19:14:23.086Z,7.55
2019-03-20T19:17:10.748Z,7.28
2019-03-20T19:19:39.258Z,6.90
2019-03-20T19:22:27.013Z,7.02
2019-03-20T19:27:29.061Z,6.93
2019-03-20T19:29:57.546Z,6.92
2019-03-20T19:32:25.998Z,6.41
2019-03-20T19:38:07.417Z,6.40
2019-03-20T19:43:09.501Z,6.33
2019-03-20T19:45:57.342Z,6.09
2019-03-20T19:48:25.800Z,6.10
2019-03-20T19:50:54.254Z,5.91
2019-03-20T19:55:56.312Z,5.79
2019-03-20T19:58:24.763Z,5.92
2019-03-20T20:03:27.542Z,5.54
2019-03-20T20:05:56.037Z,5.39
2019-03-20T20:08:24.496Z,5.22
2019-03-20T20:10:52.940Z,5.21
2019-03-20T20:13:21.412Z,5.21
2019-03-20T20:16:09.124Z,5.05
2019-03-20T20:18:37.583Z,4.99
2019-03-20T20:21:46.074Z,4.93
2019-03-20T20:24:14.530Z,4.83
2019-03-20T20:26:42.994Z,4.82
2019-03-20T20:29:11.479Z,4.62
2019-03-20T20:31:39.937Z,4.63
2019-03-20T20:34:08.396Z,4.60
2019-03-20T20:36:36.909Z,4.46
2019-03-20T20:39:45.279Z,4.40
2019-03-20T20:44:47.456Z,4.69
2019-03-20T20:47:15.948Z,4.60
2019-03-20T20:49:44.403Z,4.52
2019-03-20T20:52:19.390Z,4.39
2019-03-20T20:57:17.523Z,4.31
2019-03-20T20:59:45.974Z,4.19
2019-03-20T21:02:33.706Z,4.26
2019-03-20T21:05:02.164Z,4.40
2019-03-20T21:11:04.091Z,4.32
2019-03-20T21:13:32.582Z,4.41
2019-03-20T21:16:01.043Z,4.09
2019-03-20T21:18:50.382Z,4.03
2019-03-20T21:27:40.982Z,3.97
2019-03-20T21:30:48.036Z,3.83
2019-03-20T21:33:56.576Z,3.68
2019-03-20T21:37:05.003Z,3.71
2019-03-20T21:39:52.735Z,3.81
2019-03-20T21:43:06.941Z,3.63
2019-03-20T21:46:08.584Z,3.48
2019-03-20T21:48:37.034Z,3.45
2019-03-20T21:54:37.423Z,3.19
2019-03-20T21:57:44.596Z,3.15
2019-03-20T22:00:51.626Z,3.15
2019-03-20T22:03:20.115Z,2.95
2019-03-20T22:06:28.536Z,3.14
2019-03-20T22:12:10.409Z,3.13
2019-03-20T22:18:12.081Z,2.82
2019-03-20T22:21:20.450Z,2.89
2019-03-20T22:24:28.900Z,3.57
2019-03-20T22:27:37.324Z,2.89
2019-03-20T22:30:46.066Z,2.89
2019-03-20T22:33:53.111Z,2.91
2019-03-20T22:39:54.315Z,2.78
2019-03-20T22:43:02.685Z,2.91
2019-03-20T22:46:11.220Z,3.02
2019-03-20T22:49:18.257Z,3.06
2019-03-20T22:52:25.337Z,2.78
2019-03-20T22:55:32.393Z,2.74
2019-03-20T22:58:39.534Z,2.70
2019-03-20T23:01:27.359Z,2.66
2019-03-20T23:04:34.503Z,2.60
2019-03-20T23:07:02.958Z,2.40
2019-03-20T23:09:31.420Z,2.47
2019-03-20T23:12:39.838Z,2.65
2019-03-20T23:15:48.187Z,2.60
2019-03-20T23:21:09.645Z,2.51
2019-03-20T23:24:18.046Z,2.61
2019-03-20T23:26:46.500Z,2.61
2019-03-20T23:29:15.025Z,2.43
2019-03-20T23:32:02.823Z,2.50
2019-03-20T23:39:54.716Z,2.19
2019-03-20T23:42:42.469Z,2.17
2019-03-20T23:45:50.850Z,2.18
2019-03-20T23:48:59.246Z,1.97
2019-03-20T23:52:07.616Z,1.97
2019-03-20T23:55:16.015Z,1.99
2019-03-20T23:57:44.466Z,2.02
